createdAt,value
2023-03-08T00:01:16.428Z,98584.30
2023-03-08T00:06:11.763Z,98589.95
2023-03-08T00:11:09.413Z,98591.73
2023-03-08T00:16:04.128Z,98590.15
2023-03-08T00:21:05.523Z,98591.71
2023-03-08T00:25:58.146Z,98596.02
2023-03-08T00:31:18.162Z,98592.92
2023-03-08T00:36:18.235Z,98592.51
2023-03-08T00:41:11.276Z,98588.17
2023-03-08T00:46:04.238Z,98588.24
2023-03-08T00:50:56.886Z,98584.91
2023-03-08T00:55:51.573Z,98579.89
2023-03-08T01:00:45.291Z,98582.38
2023-03-08T01:05:43.165Z,98582.34
2023-03-08T01:10:36.817Z,98585.93
2023-03-08T01:15:29.764Z,98590.37
2023-03-08T01:20:22.521Z,98587.70
2023-03-08T01:25:15.203Z,98589.33
2023-03-08T01:30:08.401Z,98593.69
2023-03-08T01:35:04.542Z,98593.45
2023-03-08T01:39:57.301Z,98584.38
2023-03-08T01:45:01.706Z,98582.45
2023-03-08T01:50:12.438Z,98581.71
2023-03-08T01:55:12.917Z,98588.58
2023-03-08T02:00:17.744Z,98589.41
2023-03-08T02:05:13.657Z,98584.60
2023-03-08T02:10:08.196Z,98586.09
2023-03-08T02:15:15.452Z,98585.58
2023-03-08T02:20:19.011Z,98583.41
2023-03-08T02:25:23.858Z,98587.26
2023-03-08T02:30:25.500Z,98588.49
2023-03-08T02:35:19.944Z,98594.19
2023-03-08T02:40:16.523Z,98596.88
2023-03-08T02:45:14.123Z,98610.38
2023-03-08T02:50:10.178Z,98616.13
2023-03-08T02:55:06.730Z,98610.35
2023-03-08T02:59:59.816Z,98606.73
2023-03-08T03:04:53.461Z,98610.91
2023-03-08T03:09:46.635Z,98622.58
2023-03-08T03:14:41.191Z,98623.19
2023-03-08T03:19:36.418Z,98628.91
2023-03-08T03:24:37.478Z,98630.69
2023-03-08T03:29:31.808Z,98630.37
2023-03-08T03:34:33.166Z,98643.77
2023-03-08T03:39:26.491Z,98644.78
2023-03-08T03:44:19.787Z,98645.18
2023-03-08T03:49:14.014Z,98645.14
2023-03-08T03:54:08.607Z,98659.83
2023-03-08T03:59:04.117Z,98662.86
2023-03-08T04:03:59.986Z,98666.09
2023-03-08T04:08:55.695Z,98678.69
2023-03-08T04:13:51.336Z,98682.44
2023-03-08T04:18:47.916Z,98684.70
2023-03-08T04:23:43.688Z,98694.39
2023-03-08T04:28:48.051Z,98689.80
2023-03-08T04:33:51.266Z,98689.09
2023-03-08T04:38:46.925Z,98695.97
2023-03-08T04:43:56.058Z,98705.20
2023-03-08T04:49:01.102Z,98701.34
2023-03-08T04:53:58.164Z,98702.66
2023-03-08T04:58:56.801Z,98699.23
2023-03-08T05:03:55.535Z,98704.42
2023-03-08T05:08:58.429Z,98705.77
2023-03-08T05:13:55.182Z,98708.83
2023-03-08T05:19:06.694Z,98711.64
2023-03-08T05:24:06.782Z,98716.85
2023-03-08T05:29:08.269Z,98728.33
2023-03-08T05:34:02.307Z,98741.59
2023-03-08T05:39:05.128Z,98749.28
2023-03-08T05:44:08.481Z,98757.55
2023-03-08T05:49:02.184Z,98762.58
2023-03-08T05:54:00.277Z,98764.91
2023-03-08T05:59:21.388Z,98770.34
2023-03-08T06:04:18.149Z,98777.46
2023-03-08T06:09:30.702Z,98788.89
2023-03-08T06:14:27.795Z,98806.54
2023-03-08T06:19:27.474Z,98817.83
2023-03-08T06:24:26.599Z,98827.48
2023-03-08T06:29:23.451Z,98838.64
2023-03-08T06:34:30.658Z,98847.23
2023-03-08T06:39:31.861Z,98857.14
2023-03-08T06:44:32.460Z,98865.05
2023-03-08T06:49:25.279Z,98871.51
2023-03-08T06:54:22.673Z,98879.26
2023-03-08T06:59:27.538Z,98888.45
2023-03-08T07:04:22.578Z,98893.89
2023-03-08T07:09:23.872Z,98892.09
2023-03-08T07:14:25.407Z,98897.31
2023-03-08T07:19:30.979Z,98903.41
2023-03-08T07:24:39.404Z,98907.28
2023-03-08T07:29:39.680Z,98916.52
2023-03-08T07:34:32.561Z,98916.41
2023-03-08T07:39:25.641Z,98919.48
2023-03-08T07:44:18.635Z,98919.85
2023-03-08T07:49:13.132Z,98925.52
2023-03-08T07:54:13.027Z,98928.48
2023-03-08T07:59:06.005Z,98922.80
2023-03-08T08:04:16.343Z,98927.67
2023-03-08T08:09:14.701Z,98931.98
2023-03-08T08:14:09.572Z,98938.66
2023-03-08T08:19:05.821Z,98944.73
2023-03-08T08:24:02.401Z,98948.35
2023-03-08T08:28:56.578Z,98948.14
2023-03-08T08:33:54.854Z,98954.30
2023-03-08T08:38:57.060Z,98960.23
2023-03-08T08:43:52.425Z,98966.77
2023-03-08T08:48:45.632Z,98972.63
2023-03-08T08:53:39.928Z,98974.27
2023-03-08T08:58:32.875Z,98969.58
2023-03-08T09:03:28.498Z,98975.02
2023-03-08T09:08:21.389Z,98973.77
2023-03-08T09:13:17.428Z,98977.40
2023-03-08T09:18:12.851Z,98983.30
2023-03-08T09:23:06.926Z,98992.00
2023-03-08T09:27:59.979Z,98997.13
2023-03-08T09:32:52.967Z,98995.80
2023-03-08T09:37:46.128Z,98997.89
2023-03-08T09:42:39.626Z,98995.14
2023-03-08T09:47:50.603Z,98992.23
2023-03-08T09:52:50.670Z,98976.91
2023-03-08T09:57:53.606Z,98983.30
2023-03-08T10:02:58.764Z,98982.14
2023-03-08T10:08:07.400Z,98984.40
2023-03-08T10:13:25.057Z,98977.01
2023-03-08T10:18:39.504Z,98982.15
2023-03-08T10:23:34.160Z,98985.34
2023-03-08T10:28:27.879Z,98983.64
2023-03-08T10:33:27.512Z,98992.95
2023-03-08T10:38:20.547Z,98992.46
2023-03-08T10:43:43.111Z,98989.09
2023-03-08T10:48:45.586Z,98985.72
2023-03-08T10:54:06.499Z,98987.25
2023-03-08T10:59:00.756Z,98984.23
2023-03-08T11:04:16.692Z,98993.52
2023-03-08T11:09:25.220Z,98994.48
2023-03-08T11:14:18.606Z,99000.67
2023-03-08T11:19:20.566Z,99009.61
2023-03-08T11:24:34.367Z,99008.36
2023-03-08T11:29:47.581Z,99004.46
2023-03-08T11:34:43.152Z,98992.11
2023-03-08T11:40:11.651Z,98993.50
2023-03-08T11:45:07.388Z,98984.29
2023-03-08T11:50:44.360Z,98968.58
2023-03-08T11:56:05.159Z,98961.34
2023-03-08T12:01:12.783Z,98955.96
2023-03-08T12:06:28.297Z,98955.52
2023-03-08T12:11:32.522Z,98960.54
2023-03-08T12:16:42.449Z,98963.63
2023-03-08T12:22:14.234Z,98959.65
2023-03-08T12:27:47.106Z,98959.73
2023-03-08T12:32:51.615Z,98964.88
2023-03-08T12:37:57.150Z,98965.29
2023-03-08T12:42:50.454Z,98965.31
2023-03-08T12:47:43.887Z,98965.70
2023-03-08T12:52:41.188Z,98963.06
2023-03-08T12:57:46.603Z,98964.10
2023-03-08T13:02:46.807Z,98967.13
2023-03-08T13:07:49.182Z,98967.29
2023-03-08T13:13:37.649Z,98959.80
2023-03-08T13:18:33.826Z,98951.29
2023-03-08T13:23:39.689Z,98945.42
2023-03-08T13:28:47.069Z,98938.83
2023-03-08T13:33:53.271Z,98945.77
2023-03-08T13:38:55.478Z,98948.89
2023-03-08T13:43:51.345Z,98947.44
2023-03-08T13:48:54.974Z,98947.41
2023-03-08T13:53:50.365Z,98940.90
2023-03-08T13:58:52.960Z,98937.10
2023-03-08T14:09:05.038Z,98918.23
2023-03-08T14:14:01.804Z,98922.70
2023-03-08T14:18:58.184Z,98917.45
2023-03-08T14:24:15.989Z,98924.32
2023-03-08T14:29:29.175Z,98928.01
2023-03-08T14:34:25.342Z,98925.95
2023-03-08T14:39:21.713Z,98912.49
2023-03-08T14:44:26.621Z,98903.64
2023-03-08T14:49:29.805Z,98900.64
2023-03-08T14:54:43.902Z,98896.70
2023-03-08T14:59:41.424Z,98895.38
2023-03-08T15:04:34.276Z,98891.54
2023-03-08T15:09:29.473Z,98887.73
2023-03-08T15:14:22.296Z,98876.80
2023-03-08T15:19:15.575Z,98876.45
2023-03-08T15:24:08.859Z,98873.17
2023-03-08T15:29:03.600Z,98871.98
2023-03-08T15:33:56.595Z,98874.58
2023-03-08T15:38:49.686Z,98870.16
2023-03-08T15:43:43.043Z,98869.71
2023-03-08T15:48:38.812Z,98865.23
2023-03-08T15:53:35.719Z,98859.98
2023-03-08T15:58:29.045Z,98860.05
2023-03-08T16:03:31.116Z,98871.22
2023-03-08T16:08:29.139Z,98874.21
2023-03-08T16:13:23.042Z,98878.05
2023-03-08T16:18:16.356Z,98881.51
2023-03-08T16:23:09.502Z,98876.61
2023-03-08T16:28:02.317Z,98877.72
2023-03-08T16:32:55.629Z,98876.23
2023-03-08T16:37:48.382Z,98875.46
2023-03-08T16:42:41.317Z,98871.93
2023-03-08T16:47:34.139Z,98874.70
2023-03-08T16:52:27.151Z,98875.58
2023-03-08T16:57:21.803Z,98877.56
2023-03-08T17:02:20.883Z,98873.95
2023-03-08T17:07:14.160Z,98873.77
2023-03-08T17:12:08.658Z,98874.19
2023-03-08T17:17:01.513Z,98867.48
2023-03-08T17:21:54.391Z,98859.07
2023-03-08T17:26:51.349Z,98862.80
2023-03-08T17:31:44.987Z,98865.48
2023-03-08T17:36:37.937Z,98867.10
2023-03-08T17:41:32.594Z,98869.56
2023-03-08T17:46:27.764Z,98865.06
2023-03-08T17:51:23.975Z,98865.35
2023-03-08T17:56:22.658Z,98861.00
2023-03-08T18:01:21.288Z,98861.45
2023-03-08T18:06:25.924Z,98858.71
2023-03-08T18:11:19.159Z,98858.67
2023-03-08T18:16:12.275Z,98857.96
2023-03-08T18:21:13.478Z,98854.69
2023-03-08T18:26:07.029Z,98853.74
2023-03-08T18:30:59.846Z,98849.71
2023-03-08T18:35:59.414Z,98849.23
2023-03-08T18:40:52.245Z,98846.16
2023-03-08T18:45:56.686Z,98848.47
2023-03-08T18:50:49.842Z,98847.15
2023-03-08T18:55:53.799Z,98845.27
2023-03-08T19:00:46.645Z,98845.64
2023-03-08T19:05:39.473Z,98843.80
2023-03-08T19:10:33.380Z,98843.36
2023-03-08T19:15:26.281Z,98843.75
2023-03-08T19:20:19.280Z,98836.59
2023-03-08T19:25:12.052Z,98824.27
2023-03-08T19:30:05.072Z,98824.56
2023-03-08T19:34:57.857Z,98815.46
2023-03-08T19:39:51.574Z,98815.38
2023-03-08T19:44:48.465Z,98806.55
2023-03-08T19:49:41.334Z,98804.23
2023-03-08T19:54:34.520Z,98792.10
2023-03-08T19:59:28.012Z,98780.45
2023-03-08T20:04:22.062Z,98773.39
2023-03-08T20:09:21.718Z,98768.48
2023-03-08T20:14:14.686Z,98765.56
2023-03-08T20:19:07.514Z,98753.27
2023-03-08T20:24:01.163Z,98751.91
2023-03-08T20:28:54.273Z,98741.30
2023-03-08T20:33:47.733Z,98743.95
2023-03-08T20:38:41.784Z,98738.16
2023-03-08T20:43:35.115Z,98736.26
2023-03-08T20:48:28.382Z,98737.25
2023-03-08T20:53:21.303Z,98724.44
2023-03-08T20:58:14.094Z,98711.65
2023-03-08T21:03:06.959Z,98700.55
2023-03-08T21:07:59.748Z,98694.42
2023-03-08T21:12:52.538Z,98688.42
2023-03-08T21:17:45.305Z,98680.16
2023-03-08T21:22:38.610Z,98675.02
2023-03-08T21:27:31.402Z,98672.42
2023-03-08T21:32:26.361Z,98671.03
2023-03-08T21:37:20.781Z,98662.27
2023-03-08T21:42:14.289Z,98653.88
2023-03-08T21:47:07.812Z,98644.47
2023-03-08T21:52:00.638Z,98636.55
2023-03-08T21:56:53.592Z,98626.79
2023-03-08T22:01:48.541Z,98623.50
2023-03-08T22:06:41.515Z,98611.33
2023-03-08T22:11:34.425Z,98605.34
2023-03-08T22:16:28.598Z,98602.74
2023-03-08T22:21:21.748Z,98606.31
2023-03-08T22:26:14.622Z,98604.23
2023-03-08T22:31:16.505Z,98601.62
2023-03-08T22:36:12.826Z,98601.24
2023-03-08T22:41:15.157Z,98600.55
2023-03-08T22:46:19.966Z,98597.25
2023-03-08T22:51:13.229Z,98594.30
2023-03-08T22:56:06.377Z,98592.39
2023-03-08T23:00:59.183Z,98590.02
2023-03-08T23:05:51.972Z,98579.73
2023-03-08T23:10:44.747Z,98575.88
2023-03-08T23:16:13.507Z,98575.66
2023-03-08T23:21:14.585Z,98575.48
2023-03-08T23:26:10.645Z,98570.22
2023-03-08T23:31:25.975Z,98567.64
2023-03-08T23:36:23.380Z,98565.89
2023-03-08T23:41:17.423Z,98563.80
2023-03-08T23:46:13.661Z,98562.36
2023-03-08T23:51:09.461Z,98558.41
2023-03-08T23:56:03.411Z,98557.38
